sensor_id;sensor_type;location;lat;lon;timestamp;temperature;humidity
33580;DHT22;19909;43.644;-79.438;2022-11-20T00:00:54;19.80;32.70
33580;DHT22;19909;43.644;-79.438;2022-11-20T00:03:20;19.80;32.60
33580;DHT22;19909;43.644;-79.438;2022-11-20T00:05:47;19.80;32.50
33580;DHT22;19909;43.644;-79.438;2022-11-20T00:08:13;19.80;32.50
33580;DHT22;19909;43.644;-79.438;2022-11-20T00:10:40;19.80;32.60
33580;DHT22;19909;43.644;-79.438;2022-11-20T00:13:08;19.80;32.70
33580;DHT22;19909;43.644;-79.438;2022-11-20T00:15:34;19.80;32.80
33580;DHT22;19909;43.644;-79.438;2022-11-20T00:18:01;19.80;32.60
33580;DHT22;19909;43.644;-79.438;2022-11-20T00:20:27;19.70;32.50
33580;DHT22;19909;43.644;-79.438;2022-11-20T00:22:54;19.70;32.50
33580;DHT22;19909;43.644;-79.438;2022-11-20T00:25:20;19.70;32.60
33580;DHT22;19909;43.644;-79.438;2022-11-20T00:27:46;19.70;32.50
33580;DHT22;19909;43.644;-79.438;2022-11-20T00:30:13;19.70;32.50
33580;DHT22;19909;43.644;-79.438;2022-11-20T00:32:39;19.70;32.40
33580;DHT22;19909;43.644;-79.438;2022-11-20T00:35:06;19.80;32.40
33580;DHT22;19909;43.644;-79.438;2022-11-20T00:37:33;19.90;32.50
33580;DHT22;19909;43.644;-79.438;2022-11-20T00:39:59;19.90;32.50
33580;DHT22;19909;43.644;-79.438;2022-11-20T00:42:25;19.90;32.60
33580;DHT22;19909;43.644;-79.438;2022-11-20T00:44:52;20.00;32.70
33580;DHT22;19909;43.644;-79.438;2022-11-20T00:47:19;19.90;32.60
33580;DHT22;19909;43.644;-79.438;2022-11-20T00:49:45;20.00;32.70
33580;DHT22;19909;43.644;-79.438;2022-11-20T00:52:12;20.00;32.70
33580;DHT22;19909;43.644;-79.438;2022-11-20T00:54:38;20.00;32.70
33580;DHT22;19909;43.644;-79.438;2022-11-20T00:57:05;19.90;32.70
33580;DHT22;19909;43.644;-79.438;2022-11-20T00:59:31;19.90;32.60
33580;DHT22;19909;43.644;-79.438;2022-11-20T01:01:58;20.00;32.70
33580;DHT22;19909;43.644;-79.438;2022-11-20T01:04:24;19.90;32.60
33580;DHT22;19909;43.644;-79.438;2022-11-20T01:06:50;19.90;32.50
33580;DHT22;19909;43.644;-79.438;2022-11-20T01:09:17;19.90;32.60
33580;DHT22;19909;43.644;-79.438;2022-11-20T01:11:44;19.90;32.70
33580;DHT22;19909;43.644;-79.438;2022-11-20T01:14:13;19.90;32.90
33580;DHT22;19909;43.644;-79.438;2022-11-20T01:16:43;19.90;32.60
33580;DHT22;19909;43.644;-79.438;2022-11-20T01:19:13;19.90;32.60
33580;DHT22;19909;43.644;-79.438;2022-11-20T01:21:41;19.90;32.50
33580;DHT22;19909;43.644;-79.438;2022-11-20T01:24:11;19.90;32.60
33580;DHT22;19909;43.644;-79.438;2022-11-20T01:26:39;19.80;32.60
33580;DHT22;19909;43.644;-79.438;2022-11-20T01:29:07;19.80;32.70
33580;DHT22;19909;43.644;-79.438;2022-11-20T01:31:37;19.80;32.70
33580;DHT22;19909;43.644;-79.438;2022-11-20T01:34:06;19.80;32.60
33580;DHT22;19909;43.644;-79.438;2022-11-20T01:36:35;19.80;32.40
33580;DHT22;19909;43.644;-79.438;2022-11-20T01:39:06;19.80;32.40
33580;DHT22;19909;43.644;-79.438;2022-11-20T01:41:34;19.80;32.60
33580;DHT22;19909;43.644;-79.438;2022-11-20T01:44:22;19.80;32.80
33580;DHT22;19909;43.644;-79.438;2022-11-20T01:47:07;19.80;32.70
33580;DHT22;19909;43.644;-79.438;2022-11-20T01:49:41;19.80;32.60
33580;DHT22;19909;43.644;-79.438;2022-11-20T01:52:23;19.70;32.40
33580;DHT22;19909;43.644;-79.438;2022-11-20T01:54:59;19.70;32.30
33580;DHT22;19909;43.644;-79.438;2022-11-20T01:57:29;19.70;32.40
33580;DHT22;19909;43.644;-79.438;2022-11-20T02:00:10;19.70;32.30
33580;DHT22;19909;43.644;-79.438;2022-11-20T02:02:39;19.80;32.30
33580;DHT22;19909;43.644;-79.438;2022-11-20T02:07:58;19.90;32.40
33580;DHT22;19909;43.644;-79.438;2022-11-20T02:10:26;19.90;32.50
33580;DHT22;19909;43.644;-79.438;2022-11-20T02:12:53;20.00;32.50
33580;DHT22;19909;43.644;-79.438;2022-11-20T02:15:38;20.00;32.50
33580;DHT22;19909;43.644;-79.438;2022-11-20T02:18:06;19.90;32.40
33580;DHT22;19909;43.644;-79.438;2022-11-20T02:20:33;19.90;32.30
33580;DHT22;19909;43.644;-79.438;2022-11-20T02:23:12;19.90;32.20
33580;DHT22;19909;43.644;-79.438;2022-11-20T02:25:41;19.90;32.30
33580;DHT22;19909;43.644;-79.438;2022-11-20T02:28:09;19.90;32.50
33580;DHT22;19909;43.644;-79.438;2022-11-20T02:30:36;19.90;32.40
33580;DHT22;19909;43.644;-79.438;2022-11-20T02:33:03;19.90;32.40
33580;DHT22;19909;43.644;-79.438;2022-11-20T02:37:59;19.90;32.20
33580;DHT22;19909;43.644;-79.438;2022-11-20T02:40:27;19.90;32.30
33580;DHT22;19909;43.644;-79.438;2022-11-20T02:42:55;19.80;32.30
33580;DHT22;19909;43.644;-79.438;2022-11-20T02:45:22;19.80;32.50
33580;DHT22;19909;43.644;-79.438;2022-11-20T02:47:49;19.80;32.30
33580;DHT22;19909;43.644;-79.438;2022-11-20T02:50:16;19.80;32.10
33580;DHT22;19909;43.644;-79.438;2022-11-20T02:52:42;19.80;32.10
33580;DHT22;19909;43.644;-79.438;2022-11-20T02:55:09;19.80;32.20
33580;DHT22;19909;43.644;-79.438;2022-11-20T02:57:36;19.70;32.40
33580;DHT22;19909;43.644;-79.438;2022-11-20T03:00:04;19.80;32.40
33580;DHT22;19909;43.644;-79.438;2022-11-20T03:02:31;19.70;32.30
33580;DHT22;19909;43.644;-79.438;2022-11-20T03:04:58;19.70;32.10
33580;DHT22;19909;43.644;-79.438;2022-11-20T03:07:25;19.70;32.10
33580;DHT22;19909;43.644;-79.438;2022-11-20T03:09:51;19.70;32.00
33580;DHT22;19909;43.644;-79.438;2022-11-20T03:12:18;19.70;32.00
33580;DHT22;19909;43.644;-79.438;2022-11-20T03:14:44;19.70;32.00
33580;DHT22;19909;43.644;-79.438;2022-11-20T03:17:11;19.80;32.00
33580;DHT22;19909;43.644;-79.438;2022-11-20T03:19:37;19.90;32.00
33580;DHT22;19909;43.644;-79.438;2022-11-20T03:22:04;19.90;32.00
33580;DHT22;19909;43.644;-79.438;2022-11-20T03:24:30;19.90;32.10
33580;DHT22;19909;43.644;-79.438;2022-11-20T03:26:56;20.00;32.10
33580;DHT22;19909;43.644;-79.438;2022-11-20T03:29:23;20.00;32.10
33580;DHT22;19909;43.644;-79.438;2022-11-20T03:31:50;20.00;32.10
33580;DHT22;19909;43.644;-79.438;2022-11-20T03:34:16;19.90;32.00
33580;DHT22;19909;43.644;-79.438;2022-11-20T03:36:43;19.90;32.10
33580;DHT22;19909;43.644;-79.438;2022-11-20T03:39:09;19.90;32.10
33580;DHT22;19909;43.644;-79.438;2022-11-20T03:41:38;19.90;32.10
33580;DHT22;19909;43.644;-79.438;2022-11-20T03:44:07;19.90;32.00
33580;DHT22;19909;43.644;-79.438;2022-11-20T03:46:34;19.90;32.00
33580;DHT22;19909;43.644;-79.438;2022-11-20T03:49:00;19.90;31.90
33580;DHT22;19909;43.644;-79.438;2022-11-20T03:51:29;19.90;31.90
33580;DHT22;19909;43.644;-79.438;2022-11-20T03:53:58;19.90;31.80
33580;DHT22;19909;43.644;-79.438;2022-11-20T03:56:30;19.80;31.90
33580;DHT22;19909;43.644;-79.438;2022-11-20T03:58:57;19.90;32.10
33580;DHT22;19909;43.644;-79.438;2022-11-20T04:01:26;19.90;32.10
33580;DHT22;19909;43.644;-79.438;2022-11-20T04:03:55;19.80;32.00
33580;DHT22;19909;43.644;-79.438;2022-11-20T04:06:25;19.80;31.90
33580;DHT22;19909;43.644;-79.438;2022-11-20T04:08:54;19.80;31.70
33580;DHT22;19909;43.644;-79.438;2022-11-20T04:11:23;19.80;31.80
33580;DHT22;19909;43.644;-79.438;2022-11-20T04:13:56;19.80;31.60
33580;DHT22;19909;43.644;-79.438;2022-11-20T04:16:24;19.80;31.70
33580;DHT22;19909;43.644;-79.438;2022-11-20T04:18:54;19.80;31.70
33580;DHT22;19909;43.644;-79.438;2022-11-20T04:21:24;19.80;31.80
33580;DHT22;19909;43.644;-79.438;2022-11-20T04:23:51;19.90;31.80
33580;DHT22;19909;43.644;-79.438;2022-11-20T04:26:23;19.90;31.80
33580;DHT22;19909;43.644;-79.438;2022-11-20T04:28:49;20.00;31.80
33580;DHT22;19909;43.644;-79.438;2022-11-20T04:31:19;20.10;32.00
33580;DHT22;19909;43.644;-79.438;2022-11-20T04:33:46;20.10;31.90
33580;DHT22;19909;43.644;-79.438;2022-11-20T04:36:24;20.10;31.80
33580;DHT22;19909;43.644;-79.438;2022-11-20T04:38:52;20.10;31.90
33580;DHT22;19909;43.644;-79.438;2022-11-20T04:41:22;20.10;31.80
33580;DHT22;19909;43.644;-79.438;2022-11-20T04:43:50;20.00;31.90
33580;DHT22;19909;43.644;-79.438;2022-11-20T04:46:19;20.00;31.80
33580;DHT22;19909;43.644;-79.438;2022-11-20T04:48:47;20.10;31.90
33580;DHT22;19909;43.644;-79.438;2022-11-20T04:51:13;20.00;31.80
33580;DHT22;19909;43.644;-79.438;2022-11-20T04:53:40;20.00;31.70
33580;DHT22;19909;43.644;-79.438;2022-11-20T04:56:09;20.00;31.70
33580;DHT22;19909;43.644;-79.438;2022-11-20T04:58:36;20.00;31.80
33580;DHT22;19909;43.644;-79.438;2022-11-20T05:01:05;20.00;31.90
33580;DHT22;19909;43.644;-79.438;2022-11-20T05:03:32;20.00;31.60
33580;DHT22;19909;43.644;-79.438;2022-11-20T05:06:04;20.00;31.50
33580;DHT22;19909;43.644;-79.438;2022-11-20T05:08:31;20.00;31.50
33580;DHT22;19909;43.644;-79.438;2022-11-20T05:11:03;20.00;31.70
33580;DHT22;19909;43.644;-79.438;2022-11-20T05:13:30;19.90;31.80
33580;DHT22;19909;43.644;-79.438;2022-11-20T05:16:05;19.90;31.80
33580;DHT22;19909;43.644;-79.438;2022-11-20T05:18:33;19.90;32.30
33580;DHT22;19909;43.644;-79.438;2022-11-20T05:21:00;19.90;31.60
33580;DHT22;19909;43.644;-79.438;2022-11-20T05:23:27;19.90;31.70
33580;DHT22;19909;43.644;-79.438;2022-11-20T05:25:56;19.90;31.70
33580;DHT22;19909;43.644;-79.438;2022-11-20T05:28:23;19.90;31.90
33580;DHT22;19909;43.644;-79.438;2022-11-20T05:30:50;19.90;31.90
33580;DHT22;19909;43.644;-79.438;2022-11-20T05:33:17;19.90;31.80
33580;DHT22;19909;43.644;-79.438;2022-11-20T05:35:44;19.80;31.70
33580;DHT22;19909;43.644;-79.438;2022-11-20T05:38:11;19.80;31.60
33580;DHT22;19909;43.644;-79.438;2022-11-20T05:40:37;19.80;31.30
33580;DHT22;19909;43.644;-79.438;2022-11-20T05:43:03;19.80;31.40
33580;DHT22;19909;43.644;-79.438;2022-11-20T05:45:30;19.90;31.50
33580;DHT22;19909;43.644;-79.438;2022-11-20T05:48:00;19.90;31.50
33580;DHT22;19909;43.644;-79.438;2022-11-20T05:50:29;20.00;31.50
33580;DHT22;19909;43.644;-79.438;2022-11-20T05:52:58;20.00;31.50
33580;DHT22;19909;43.644;-79.438;2022-11-20T05:55:26;20.00;31.60
33580;DHT22;19909;43.644;-79.438;2022-11-20T05:57:54;20.10;31.60
33580;DHT22;19909;43.644;-79.438;2022-11-20T06:00:20;20.10;31.60
33580;DHT22;19909;43.644;-79.438;2022-11-20T06:02:47;20.10;31.60
33580;DHT22;19909;43.644;-79.438;2022-11-20T06:05:13;20.10;31.60
33580;DHT22;19909;43.644;-79.438;2022-11-20T06:07:40;20.10;31.60
33580;DHT22;19909;43.644;-79.438;2022-11-20T06:10:07;20.00;31.60
33580;DHT22;19909;43.644;-79.438;2022-11-20T06:12:33;20.00;31.60
33580;DHT22;19909;43.644;-79.438;2022-11-20T06:15:00;20.10;31.70
33580;DHT22;19909;43.644;-79.438;2022-11-20T06:17:27;20.10;31.70
33580;DHT22;19909;43.644;-79.438;2022-11-20T06:19:53;20.00;31.60
33580;DHT22;19909;43.644;-79.438;2022-11-20T06:22:20;20.00;31.50
33580;DHT22;19909;43.644;-79.438;2022-11-20T06:24:46;20.00;31.50
33580;DHT22;19909;43.644;-79.438;2022-11-20T06:27:13;20.00;31.70
33580;DHT22;19909;43.644;-79.438;2022-11-20T06:29:39;20.00;31.80
33580;DHT22;19909;43.644;-79.438;2022-11-20T06:32:06;20.00;31.60
33580;DHT22;19909;43.644;-79.438;2022-11-20T06:34:32;20.00;31.50
33580;DHT22;19909;43.644;-79.438;2022-11-20T06:36:58;20.00;31.40
33580;DHT22;19909;43.644;-79.438;2022-11-20T06:39:25;19.90;31.30
33580;DHT22;19909;43.644;-79.438;2022-11-20T06:41:52;19.90;31.20
33580;DHT22;19909;43.644;-79.438;2022-11-20T06:44:18;19.90;31.20
33580;DHT22;19909;43.644;-79.438;2022-11-20T06:46:45;19.90;31.30
33580;DHT22;19909;43.644;-79.438;2022-11-20T06:49:11;19.90;31.20
33580;DHT22;19909;43.644;-79.438;2022-11-20T06:51:37;20.00;31.30
33580;DHT22;19909;43.644;-79.438;2022-11-20T06:54:04;20.10;31.40
33580;DHT22;19909;43.644;-79.438;2022-11-20T06:56:30;20.10;31.40
33580;DHT22;19909;43.644;-79.438;2022-11-20T06:58:57;20.10;31.40
33580;DHT22;19909;43.644;-79.438;2022-11-20T07:01:24;20.10;31.30
33580;DHT22;19909;43.644;-79.438;2022-11-20T07:03:50;20.10;31.30
33580;DHT22;19909;43.644;-79.438;2022-11-20T07:06:17;20.10;31.30
33580;DHT22;19909;43.644;-79.438;2022-11-20T07:08:43;20.10;31.30
33580;DHT22;19909;43.644;-79.438;2022-11-20T07:11:12;20.10;31.30
33580;DHT22;19909;43.644;-79.438;2022-11-20T07:13:38;20.10;31.40
33580;DHT22;19909;43.644;-79.438;2022-11-20T07:16:06;20.10;31.40
33580;DHT22;19909;43.644;-79.438;2022-11-20T07:18:33;20.00;31.30
33580;DHT22;19909;43.644;-79.438;2022-11-20T07:21:02;20.00;31.30
33580;DHT22;19909;43.644;-79.438;2022-11-20T07:23:28;20.00;31.10
33580;DHT22;19909;43.644;-79.438;2022-11-20T07:25:54;20.00;31.40
33580;DHT22;19909;43.644;-79.438;2022-11-20T07:28:21;20.00;31.50
33580;DHT22;19909;43.644;-79.438;2022-11-20T07:30:53;20.00;31.50
33580;DHT22;19909;43.644;-79.438;2022-11-20T07:33:20;20.00;31.20
33580;DHT22;19909;43.644;-79.438;2022-11-20T07:35:46;20.00;31.20
33580;DHT22;19909;43.644;-79.438;2022-11-20T07:38:13;20.00;31.00
33580;DHT22;19909;43.644;-79.438;2022-11-20T07:40:39;20.00;31.00
33580;DHT22;19909;43.644;-79.438;2022-11-20T07:43:06;20.00;31.00
33580;DHT22;19909;43.644;-79.438;2022-11-20T07:45:32;20.00;31.00
33580;DHT22;19909;43.644;-79.438;2022-11-20T07:47:59;20.10;31.00
33580;DHT22;19909;43.644;-79.438;2022-11-20T07:50:25;20.10;31.00
33580;DHT22;19909;43.644;-79.438;2022-11-20T07:52:51;20.10;30.90
33580;DHT22;19909;43.644;-79.438;2022-11-20T07:55:18;20.20;31.00
33580;DHT22;19909;43.644;-79.438;2022-11-20T07:57:44;20.20;30.90
33580;DHT22;19909;43.644;-79.438;2022-11-20T08:00:11;20.20;30.80
33580;DHT22;19909;43.644;-79.438;2022-11-20T08:02:41;20.20;30.80
33580;DHT22;19909;43.644;-79.438;2022-11-20T08:05:09;20.20;30.40
33580;DHT22;19909;43.644;-79.438;2022-11-20T08:07:41;20.10;30.40
33580;DHT22;19909;43.644;-79.438;2022-11-20T08:10:12;20.10;30.40
33580;DHT22;19909;43.644;-79.438;2022-11-20T08:12:52;20.10;30.10
33580;DHT22;19909;43.644;-79.438;2022-11-20T08:15:38;20.10;30.20
33580;DHT22;19909;43.644;-79.438;2022-11-20T08:18:08;20.10;30.10
33580;DHT22;19909;43.644;-79.438;2022-11-20T08:20:35;20.00;30.00
33580;DHT22;19909;43.644;-79.438;2022-11-20T08:23:06;20.00;30.00
33580;DHT22;19909;43.644;-79.438;2022-11-20T08:25:35;20.00;30.10
33580;DHT22;19909;43.644;-79.438;2022-11-20T08:28:03;20.00;30.50
33580;DHT22;19909;43.644;-79.438;2022-11-20T08:30:30;20.00;30.60
33580;DHT22;19909;43.644;-79.438;2022-11-20T08:33:05;20.00;30.10
33580;DHT22;19909;43.644;-79.438;2022-11-20T08:35:36;20.00;29.90
33580;DHT22;19909;43.644;-79.438;2022-11-20T08:38:04;19.90;29.80
33580;DHT22;19909;43.644;-79.438;2022-11-20T08:40:32;19.90;29.90
33580;DHT22;19909;43.644;-79.438;2022-11-20T08:42:59;19.90;30.00
33580;DHT22;19909;43.644;-79.438;2022-11-20T08:45:25;20.00;30.00
33580;DHT22;19909;43.644;-79.438;2022-11-20T08:47:52;20.00;30.00
33580;DHT22;19909;43.644;-79.438;2022-11-20T08:50:18;20.00;30.20
33580;DHT22;19909;43.644;-79.438;2022-11-20T08:52:45;20.10;30.30
33580;DHT22;19909;43.644;-79.438;2022-11-20T08:55:11;20.10;30.40
33580;DHT22;19909;43.644;-79.438;2022-11-20T08:57:38;20.20;30.40
33580;DHT22;19909;43.644;-79.438;2022-11-20T09:00:06;20.20;30.30
33580;DHT22;19909;43.644;-79.438;2022-11-20T09:02:34;20.20;30.30
33580;DHT22;19909;43.644;-79.438;2022-11-20T09:05:01;20.10;30.30
33580;DHT22;19909;43.644;-79.438;2022-11-20T09:07:29;20.10;30.30
33580;DHT22;19909;43.644;-79.438;2022-11-20T09:09:56;20.10;30.30
33580;DHT22;19909;43.644;-79.438;2022-11-20T09:12:23;20.10;30.20
33580;DHT22;19909;43.644;-79.438;2022-11-20T09:14:49;20.10;30.20
33580;DHT22;19909;43.644;-79.438;2022-11-20T09:17:16;20.10;30.10
33580;DHT22;19909;43.644;-79.438;2022-11-20T09:19:42;20.10;30.00
33580;DHT22;19909;43.644;-79.438;2022-11-20T09:22:09;20.00;30.00
33580;DHT22;19909;43.644;-79.438;2022-11-20T09:24:36;20.00;30.00
33580;DHT22;19909;43.644;-79.438;2022-11-20T09:27:04;20.00;30.10
33580;DHT22;19909;43.644;-79.438;2022-11-20T09:29:30;20.00;30.10
33580;DHT22;19909;43.644;-79.438;2022-11-20T09:31:57;20.00;30.20
33580;DHT22;19909;43.644;-79.438;2022-11-20T09:34:23;20.00;30.00
33580;DHT22;19909;43.644;-79.438;2022-11-20T09:36:50;19.90;29.80
33580;DHT22;19909;43.644;-79.438;2022-11-20T09:39:16;19.90;29.90
33580;DHT22;19909;43.644;-79.438;2022-11-20T09:41:58;19.90;29.90
33580;DHT22;19909;43.644;-79.438;2022-11-20T09:44:40;20.00;30.00
33580;DHT22;19909;43.644;-79.438;2022-11-20T09:47:41;20.00;30.00
33580;DHT22;19909;43.644;-79.438;2022-11-20T09:55:42;20.30;30.40
33580;DHT22;19909;43.644;-79.438;2022-11-20T09:58:31;20.30;30.30
33580;DHT22;19909;43.644;-79.438;2022-11-20T10:01:14;20.30;30.00
33580;DHT22;19909;43.644;-79.438;2022-11-20T10:04:10;20.30;30.00
33580;DHT22;19909;43.644;-79.438;2022-11-20T10:06:36;20.20;30.00
33580;DHT22;19909;43.644;-79.438;2022-11-20T10:14:35;20.20;30.10
33580;DHT22;19909;43.644;-79.438;2022-11-20T10:25:43;20.10;30.00
33580;DHT22;19909;43.644;-79.438;2022-11-20T10:30:48;20.10;30.10
33580;DHT22;19909;43.644;-79.438;2022-11-20T10:33:23;20.00;30.00
33580;DHT22;19909;43.644;-79.438;2022-11-20T10:36:07;20.10;29.80
33580;DHT22;19909;43.644;-79.438;2022-11-20T10:39:01;20.00;29.80
33580;DHT22;19909;43.644;-79.438;2022-11-20T10:41:34;20.00;29.70
33580;DHT22;19909;43.644;-79.438;2022-11-20T10:44:04;20.00;30.00
33580;DHT22;19909;43.644;-79.438;2022-11-20T10:46:44;20.00;29.80
33580;DHT22;19909;43.644;-79.438;2022-11-20T10:49:16;20.10;29.90
33580;DHT22;19909;43.644;-79.438;2022-11-20T11:00:20;20.30;30.40
33580;DHT22;19909;43.644;-79.438;2022-11-20T11:02:54;20.40;30.40
33580;DHT22;19909;43.644;-79.438;2022-11-20T11:08:22;20.30;30.30
33580;DHT22;19909;43.644;-79.438;2022-11-20T11:10:54;20.30;30.30
33580;DHT22;19909;43.644;-79.438;2022-11-20T11:13:27;20.30;30.30
33580;DHT22;19909;43.644;-79.438;2022-11-20T11:15:53;20.30;30.40
33580;DHT22;19909;43.644;-79.438;2022-11-20T11:18:33;20.30;30.40
33580;DHT22;19909;43.644;-79.438;2022-11-20T11:21:03;20.20;30.30
33580;DHT22;19909;43.644;-79.438;2022-11-20T11:23:41;20.20;30.10
33580;DHT22;19909;43.644;-79.438;2022-11-20T11:26:24;20.20;30.30
33580;DHT22;19909;43.644;-79.438;2022-11-20T11:28:58;20.20;30.40
33580;DHT22;19909;43.644;-79.438;2022-11-20T11:31:30;20.20;30.40
33580;DHT22;19909;43.644;-79.438;2022-11-20T11:34:14;20.10;30.20
33580;DHT22;19909;43.644;-79.438;2022-11-20T11:36:42;20.10;30.10
33580;DHT22;19909;43.644;-79.438;2022-11-20T11:39:17;20.10;30.00
33580;DHT22;19909;43.644;-79.438;2022-11-20T11:41:47;20.10;30.00
33580;DHT22;19909;43.644;-79.438;2022-11-20T11:44:21;20.10;30.00
33580;DHT22;19909;43.644;-79.438;2022-11-20T11:49:47;20.20;30.10
33580;DHT22;19909;43.644;-79.438;2022-11-20T11:52:23;20.20;30.10
33580;DHT22;19909;43.644;-79.438;2022-11-20T11:57:24;20.30;30.20
33580;DHT22;19909;43.644;-79.438;2022-11-20T12:00:14;20.30;30.10
33580;DHT22;19909;43.644;-79.438;2022-11-20T12:16:16;20.30;30.20
33580;DHT22;19909;43.644;-79.438;2022-11-20T12:18:43;20.20;30.30
33580;DHT22;19909;43.644;-79.438;2022-11-20T12:26:38;20.20;30.10
33580;DHT22;19909;43.644;-79.438;2022-11-20T12:40:46;20.40;30.20
33580;DHT22;19909;43.644;-79.438;2022-11-20T12:54:34;20.40;30.20
33580;DHT22;19909;43.644;-79.438;2022-11-20T12:57:15;20.30;30.10
33580;DHT22;19909;43.644;-79.438;2022-11-20T12:59:55;20.30;30.20
33580;DHT22;19909;43.644;-79.438;2022-11-20T13:05:48;20.30;30.10
33580;DHT22;19909;43.644;-79.438;2022-11-20T13:08:45;20.30;30.00
33580;DHT22;19909;43.644;-79.438;2022-11-20T13:11:18;20.30;30.10
33580;DHT22;19909;43.644;-79.438;2022-11-20T13:19:12;20.20;30.00
33580;DHT22;19909;43.644;-79.438;2022-11-20T13:21:42;20.20;30.00
33580;DHT22;19909;43.644;-79.438;2022-11-20T13:29:45;20.20;30.10
33580;DHT22;19909;43.644;-79.438;2022-11-20T13:32:20;20.30;30.70
33580;DHT22;19909;43.644;-79.438;2022-11-20T13:35:01;20.30;30.00
33580;DHT22;19909;43.644;-79.438;2022-11-20T13:37:31;20.40;30.20
33580;DHT22;19909;43.644;-79.438;2022-11-20T13:43:21;20.40;30.30
33580;DHT22;19909;43.644;-79.438;2022-11-20T13:46:01;20.40;30.10
33580;DHT22;19909;43.644;-79.438;2022-11-20T13:48:39;20.40;30.10
33580;DHT22;19909;43.644;-79.438;2022-11-20T13:56:43;20.40;30.10
33580;DHT22;19909;43.644;-79.438;2022-11-20T14:00:31;20.40;30.20
33580;DHT22;19909;43.644;-79.438;2022-11-20T14:02:21;20.40;30.30
33580;DHT22;19909;43.644;-79.438;2022-11-20T14:04:54;20.30;30.00
33580;DHT22;19909;43.644;-79.438;2022-11-20T14:07:27;20.30;30.00
33580;DHT22;19909;43.644;-79.438;2022-11-20T14:09:58;20.30;30.00
33580;DHT22;19909;43.644;-79.438;2022-11-20T14:12:32;20.30;30.10
33580;DHT22;19909;43.644;-79.438;2022-11-20T14:15:00;20.30;30.10
33580;DHT22;19909;43.644;-79.438;2022-11-20T14:17:34;20.30;30.00
33580;DHT22;19909;43.644;-79.438;2022-11-20T14:20:05;20.30;30.00
33580;DHT22;19909;43.644;-79.438;2022-11-20T14:22:32;20.20;30.00
33580;DHT22;19909;43.644;-79.438;2022-11-20T14:27:42;20.20;30.20
33580;DHT22;19909;43.644;-79.438;2022-11-20T14:30:18;20.20;30.20
33580;DHT22;19909;43.644;-79.438;2022-11-20T14:32:46;20.20;30.10
33580;DHT22;19909;43.644;-79.438;2022-11-20T14:35:44;20.10;30.00
33580;DHT22;19909;43.644;-79.438;2022-11-20T14:38:17;20.10;30.00
33580;DHT22;19909;43.644;-79.438;2022-11-20T14:40:45;20.10;29.90
33580;DHT22;19909;43.644;-79.438;2022-11-20T14:43:24;20.10;30.00
33580;DHT22;19909;43.644;-79.438;2022-11-20T14:46:07;20.10;30.00
33580;DHT22;19909;43.644;-79.438;2022-11-20T14:48:55;20.20;30.00
33580;DHT22;19909;43.644;-79.438;2022-11-20T14:51:36;20.30;30.00
33580;DHT22;19909;43.644;-79.438;2022-11-20T14:54:16;20.30;30.10
33580;DHT22;19909;43.644;-79.438;2022-11-20T14:56:58;20.40;30.20
33580;DHT22;19909;43.644;-79.438;2022-11-20T14:59:26;20.40;30.30
33580;DHT22;19909;43.644;-79.438;2022-11-20T15:02:08;20.40;30.20
33580;DHT22;19909;43.644;-79.438;2022-11-20T15:04:46;20.40;30.20
33580;DHT22;19909;43.644;-79.438;2022-11-20T15:07:29;20.40;30.20
33580;DHT22;19909;43.644;-79.438;2022-11-20T15:10:23;20.30;30.10
33580;DHT22;19909;43.644;-79.438;2022-11-20T15:12:55;20.30;30.10
33580;DHT22;19909;43.644;-79.438;2022-11-20T15:15:38;20.30;30.10
33580;DHT22;19909;43.644;-79.438;2022-11-20T15:18:13;20.30;30.10
33580;DHT22;19909;43.644;-79.438;2022-11-20T15:20:41;20.30;30.00
33580;DHT22;19909;43.644;-79.438;2022-11-20T15:23:16;20.30;30.50
33580;DHT22;19909;43.644;-79.438;2022-11-20T15:25:47;20.20;30.60
33580;DHT22;19909;43.644;-79.438;2022-11-20T15:28:28;20.20;30.20
33580;DHT22;19909;43.644;-79.438;2022-11-20T15:30:55;20.20;30.10
33580;DHT22;19909;43.644;-79.438;2022-11-20T15:33:24;20.20;30.00
33580;DHT22;19909;43.644;-79.438;2022-11-20T15:35:52;20.20;30.00
33580;DHT22;19909;43.644;-79.438;2022-11-20T15:38:18;20.20;30.00
33580;DHT22;19909;43.644;-79.438;2022-11-20T15:40:44;20.10;30.10
33580;DHT22;19909;43.644;-79.438;2022-11-20T15:43:11;20.10;30.10
33580;DHT22;19909;43.644;-79.438;2022-11-20T15:46:00;20.10;30.10
33580;DHT22;19909;43.644;-79.438;2022-11-20T15:48:47;20.10;30.00
33580;DHT22;19909;43.644;-79.438;2022-11-20T15:51:31;20.10;29.90
33580;DHT22;19909;43.644;-79.438;2022-11-20T15:53:59;20.00;29.90
33580;DHT22;19909;43.644;-79.438;2022-11-20T15:56:25;20.00;29.90
33580;DHT22;19909;43.644;-79.438;2022-11-20T15:58:53;20.00;29.80
33580;DHT22;19909;43.644;-79.438;2022-11-20T16:01:21;20.10;30.00
33580;DHT22;19909;43.644;-79.438;2022-11-20T16:03:48;20.10;29.90
33580;DHT22;19909;43.644;-79.438;2022-11-20T16:06:15;20.20;29.90
33580;DHT22;19909;43.644;-79.438;2022-11-20T16:08:46;20.20;30.00
33580;DHT22;19909;43.644;-79.438;2022-11-20T16:11:15;20.30;30.00
33580;DHT22;19909;43.644;-79.438;2022-11-20T16:13:43;20.30;30.10
33580;DHT22;19909;43.644;-79.438;2022-11-20T16:16:38;20.30;30.00
33580;DHT22;19909;43.644;-79.438;2022-11-20T16:19:09;20.30;30.00
33580;DHT22;19909;43.644;-79.438;2022-11-20T16:21:39;20.30;29.80
33580;DHT22;19909;43.644;-79.438;2022-11-20T16:24:12;20.30;29.70
33580;DHT22;19909;43.644;-79.438;2022-11-20T16:26:40;20.30;29.80
33580;DHT22;19909;43.644;-79.438;2022-11-20T16:29:07;20.20;29.90
33580;DHT22;19909;43.644;-79.438;2022-11-20T16:31:35;20.30;30.00
33580;DHT22;19909;43.644;-79.438;2022-11-20T16:34:06;20.30;29.70
33580;DHT22;19909;43.644;-79.438;2022-11-20T16:36:35;20.20;29.80
33580;DHT22;19909;43.644;-79.438;2022-11-20T16:39:03;20.20;29.70
33580;DHT22;19909;43.644;-79.438;2022-11-20T16:41:32;20.20;29.90
33580;DHT22;19909;43.644;-79.438;2022-11-20T16:44:02;20.20;30.00
33580;DHT22;19909;43.644;-79.438;2022-11-20T16:46:30;20.10;29.90
33580;DHT22;19909;43.644;-79.438;2022-11-20T16:48:59;20.10;29.70
33580;DHT22;19909;43.644;-79.438;2022-11-20T16:51:30;20.10;29.70
33580;DHT22;19909;43.644;-79.438;2022-11-20T16:53:57;20.10;29.80
33580;DHT22;19909;43.644;-79.438;2022-11-20T16:56:28;20.10;29.90
33580;DHT22;19909;43.644;-79.438;2022-11-20T16:58:57;20.10;30.10
33580;DHT22;19909;43.644;-79.438;2022-11-20T17:01:24;20.10;30.00
33580;DHT22;19909;43.644;-79.438;2022-11-20T17:04:02;20.00;29.70
33580;DHT22;19909;43.644;-79.438;2022-11-20T17:06:34;20.00;29.70
33580;DHT22;19909;43.644;-79.438;2022-11-20T17:09:02;20.00;29.80
33580;DHT22;19909;43.644;-79.438;2022-11-20T17:11:28;20.00;30.00
33580;DHT22;19909;43.644;-79.438;2022-11-20T17:13:56;20.00;30.00